createdAt,value
2019-05-25T00:01:18.046Z,2.60
2019-05-25T00:03:47.073Z,2.53
2019-05-25T00:06:15.940Z,3.27
2019-05-25T00:08:44.977Z,4.43
2019-05-25T00:11:13.992Z,2.70
2019-05-25T00:13:43.029Z,3.90
2019-05-25T00:16:11.952Z,3.17
2019-05-25T00:18:40.909Z,2.30
2019-05-25T00:21:13.203Z,2.83
2019-05-25T00:23:40.746Z,2.30
2019-05-25T00:26:09.889Z,2.90
2019-05-25T00:28:38.841Z,3.07
2019-05-25T00:31:07.889Z,6.73
2019-05-25T00:33:36.923Z,4.73
2019-05-25T00:36:05.962Z,3.70
2019-05-25T00:38:34.892Z,3.83
2019-05-25T00:41:03.940Z,3.53
2019-05-25T00:43:32.964Z,2.30
2019-05-25T00:46:02.081Z,2.30
2019-05-25T00:48:31.037Z,2.50
2019-05-25T00:51:00.010Z,2.30
2019-05-25T00:53:28.984Z,2.60
2019-05-25T00:55:58.048Z,2.30
2019-05-25T00:58:27.098Z,4.40
2019-05-25T01:00:56.202Z,2.73
2019-05-25T01:03:25.375Z,3.10
2019-05-25T01:05:54.401Z,2.60
2019-05-25T01:08:23.436Z,3.63
2019-05-25T01:10:52.459Z,2.30
2019-05-25T01:13:21.556Z,2.77
2019-05-25T01:15:50.616Z,4.30
2019-05-25T01:18:19.673Z,2.40
2019-05-25T01:20:48.696Z,3.33
2019-05-25T01:23:17.745Z,5.93
2019-05-25T01:25:46.777Z,3.13
2019-05-25T01:28:15.749Z,3.07
2019-05-25T01:30:44.777Z,3.10
2019-05-25T01:33:23.059Z,3.20
2019-05-25T01:35:52.177Z,2.63
2019-05-25T01:38:21.438Z,2.97
2019-05-25T01:40:50.505Z,6.30
2019-05-25T01:43:19.556Z,2.50
2019-05-25T01:45:48.632Z,2.40
2019-05-25T01:48:17.712Z,3.13
2019-05-25T01:50:46.782Z,2.23
2019-05-25T01:53:15.853Z,2.33
2019-05-25T01:55:44.921Z,3.33
2019-05-25T01:58:13.974Z,3.23
2019-05-25T02:00:43.247Z,2.90
2019-05-25T02:03:12.305Z,4.07
2019-05-25T02:05:41.362Z,2.63
2019-05-25T02:08:10.426Z,3.90
2019-05-25T02:10:39.471Z,3.30
2019-05-25T02:13:08.551Z,2.30
2019-05-25T02:15:37.605Z,3.30
2019-05-25T02:18:06.674Z,2.83
2019-05-25T02:20:35.736Z,2.50
2019-05-25T02:23:04.932Z,2.27
2019-05-25T02:25:34.033Z,2.47
2019-05-25T02:28:03.101Z,3.90
2019-05-25T02:30:32.266Z,2.77
2019-05-25T02:33:01.337Z,4.73
2019-05-25T02:35:30.679Z,2.97
2019-05-25T02:37:59.763Z,2.67
2019-05-25T02:40:29.014Z,2.50
2019-05-25T02:42:58.524Z,2.63
2019-05-25T02:45:27.570Z,2.33
2019-05-25T02:47:56.609Z,3.80
2019-05-25T02:50:25.800Z,2.70
2019-05-25T02:52:54.859Z,2.73
2019-05-25T02:55:33.846Z,4.70
2019-05-25T02:57:54.732Z,2.30
2019-05-25T03:00:32.807Z,2.80
2019-05-25T03:03:02.635Z,2.40
2019-05-25T03:05:31.704Z,3.30
2019-05-25T03:08:00.959Z,4.30
2019-05-25T03:10:31.002Z,2.10
2019-05-25T03:13:02.668Z,2.57
2019-05-25T03:15:31.744Z,2.80
2019-05-25T03:18:01.141Z,3.67
2019-05-25T03:20:30.216Z,2.83
2019-05-25T03:22:59.304Z,2.53
2019-05-25T03:25:28.414Z,2.60
2019-05-25T03:27:57.494Z,2.90
2019-05-25T03:30:32.318Z,2.87
2019-05-25T03:33:01.568Z,3.07
2019-05-25T03:35:30.732Z,2.60
2019-05-25T03:37:59.801Z,5.63
2019-05-25T03:40:28.863Z,2.87
2019-05-25T03:42:57.941Z,2.83
2019-05-25T03:45:27.097Z,3.50
2019-05-25T03:47:56.186Z,4.23
2019-05-25T03:50:25.229Z,2.43
2019-05-25T03:52:54.307Z,3.10
2019-05-25T03:55:23.376Z,2.40
2019-05-25T03:57:52.437Z,4.10
2019-05-25T04:00:32.213Z,2.07
2019-05-25T04:03:01.302Z,2.63
2019-05-25T04:05:30.517Z,5.27
2019-05-25T04:07:59.566Z,3.27
2019-05-25T04:10:29.063Z,2.63
2019-05-25T04:12:58.147Z,2.97
2019-05-25T04:15:27.198Z,2.27
2019-05-25T04:17:56.451Z,3.10
2019-05-25T04:20:25.503Z,3.40
2019-05-25T04:22:54.552Z,2.50
2019-05-25T04:25:23.625Z,2.23
2019-05-25T04:27:52.706Z,3.40
2019-05-25T04:30:21.742Z,2.87
2019-05-25T04:32:50.818Z,2.37
2019-05-25T04:35:19.880Z,2.27
2019-05-25T04:37:48.950Z,2.60
2019-05-25T04:40:18.095Z,4.63
2019-05-25T04:42:47.162Z,4.53
2019-05-25T04:45:16.514Z,3.30
2019-05-25T04:47:45.608Z,3.00
2019-05-25T04:50:15.352Z,2.33
2019-05-25T04:52:44.398Z,2.50
2019-05-25T04:55:13.475Z,2.37
2019-05-25T04:57:42.533Z,3.70
2019-05-25T05:00:11.690Z,2.60
2019-05-25T05:02:40.717Z,2.57
2019-05-25T05:05:10.116Z,3.93
2019-05-25T05:07:39.194Z,2.33
2019-05-25T05:10:08.755Z,2.67
2019-05-25T05:12:37.830Z,3.20
2019-05-25T05:15:07.208Z,2.60
2019-05-25T05:17:36.408Z,2.43
2019-05-25T05:20:06.868Z,2.43
2019-05-25T05:22:35.924Z,2.80
2019-05-25T05:25:05.530Z,2.60
2019-05-25T05:27:34.594Z,2.33
2019-05-25T05:30:03.873Z,2.73
2019-05-25T05:32:32.935Z,2.77
2019-05-25T05:35:01.993Z,2.40
2019-05-25T05:37:31.857Z,2.60
2019-05-25T05:40:01.847Z,2.57
2019-05-25T05:42:32.697Z,2.90
2019-05-25T05:45:03.385Z,2.77
2019-05-25T05:47:35.359Z,3.03
2019-05-25T05:50:05.561Z,2.40
2019-05-25T05:52:38.271Z,2.57
2019-05-25T05:55:10.477Z,2.60
2019-05-25T05:57:39.556Z,2.97
2019-05-25T06:00:10.607Z,3.03
2019-05-25T06:02:39.655Z,2.90
2019-05-25T06:05:09.071Z,2.93
2019-05-25T06:07:38.157Z,2.80
2019-05-25T06:10:07.413Z,2.73
2019-05-25T06:12:36.473Z,2.63
2019-05-25T06:15:06.318Z,2.60
2019-05-25T06:17:35.365Z,2.50
2019-05-25T06:20:05.625Z,2.83
2019-05-25T06:22:34.681Z,2.77
2019-05-25T06:25:03.857Z,2.83
2019-05-25T06:27:32.922Z,2.40
2019-05-25T06:30:01.981Z,2.57
2019-05-25T06:32:30.941Z,2.90
2019-05-25T06:35:00.014Z,2.80
2019-05-25T06:37:29.056Z,2.97
2019-05-25T06:39:58.117Z,5.73
2019-05-25T06:42:27.195Z,3.30
2019-05-25T06:44:56.245Z,2.00
2019-05-25T06:47:25.356Z,2.30
2019-05-25T06:49:54.481Z,2.50
2019-05-25T06:52:23.538Z,2.70
2019-05-25T06:54:52.606Z,3.10
2019-05-25T06:57:21.673Z,3.40
2019-05-25T06:59:50.727Z,2.67
2019-05-25T07:02:22.592Z,3.10
2019-05-25T07:04:51.492Z,3.30
2019-05-25T07:07:20.613Z,2.53
2019-05-25T07:09:49.712Z,2.57
2019-05-25T07:12:19.524Z,2.23
2019-05-25T07:14:48.594Z,2.57
2019-05-25T07:17:17.660Z,2.60
2019-05-25T07:19:46.722Z,2.97
2019-05-25T07:22:15.786Z,3.27
2019-05-25T07:24:44.837Z,2.93
2019-05-25T07:27:13.876Z,2.77
2019-05-25T07:29:43.001Z,2.57
2019-05-25T07:32:12.073Z,2.87
2019-05-25T07:34:41.121Z,2.67
2019-05-25T07:37:10.168Z,2.50
2019-05-25T07:39:39.211Z,2.47
2019-05-25T07:42:08.377Z,4.00
2019-05-25T07:44:37.474Z,2.33
2019-05-25T07:47:06.656Z,3.00
2019-05-25T07:49:35.747Z,2.43
2019-05-25T07:52:04.785Z,2.30
2019-05-25T07:54:33.859Z,2.63
2019-05-25T07:57:02.916Z,2.80
2019-05-25T07:59:32.007Z,2.77
2019-05-25T08:02:01.082Z,2.40
2019-05-25T08:04:30.157Z,2.23
2019-05-25T08:06:59.278Z,2.40
2019-05-25T08:09:28.347Z,2.60
2019-05-25T08:11:57.499Z,2.20
2019-05-25T08:14:26.547Z,2.77
2019-05-25T08:16:55.674Z,3.80
2019-05-25T08:19:24.741Z,2.80
2019-05-25T08:21:53.803Z,2.60
2019-05-25T08:24:22.850Z,2.30
2019-05-25T08:26:51.903Z,2.53
2019-05-25T08:29:20.964Z,2.57
2019-05-25T08:31:50.030Z,2.23
2019-05-25T08:34:19.075Z,2.43
2019-05-25T08:36:48.158Z,2.40
2019-05-25T08:39:17.228Z,3.40
2019-05-25T08:41:46.353Z,1.87
2019-05-25T08:44:15.417Z,3.70
2019-05-25T08:46:44.478Z,2.67
2019-05-25T08:49:13.546Z,2.60
2019-05-25T08:51:42.633Z,2.53
2019-05-25T08:54:11.695Z,2.87
2019-05-25T08:56:40.760Z,2.63
2019-05-25T08:59:09.963Z,2.40
2019-05-25T09:01:39.067Z,2.60
2019-05-25T09:04:08.123Z,3.13
2019-05-25T09:06:37.933Z,2.13
2019-05-25T09:09:08.808Z,2.57
2019-05-25T09:11:38.852Z,2.50
2019-05-25T09:14:09.123Z,2.40
2019-05-25T09:16:38.264Z,2.70
2019-05-25T09:19:07.342Z,3.63
2019-05-25T09:21:36.397Z,2.67
2019-05-25T09:24:05.581Z,2.00
2019-05-25T09:26:34.631Z,2.30
2019-05-25T09:29:05.017Z,2.73
2019-05-25T09:31:34.252Z,2.60
2019-05-25T09:34:03.334Z,2.70
2019-05-25T09:36:32.375Z,2.87
2019-05-25T09:39:01.445Z,2.83
2019-05-25T09:41:30.523Z,2.77
2019-05-25T09:43:59.577Z,2.70
2019-05-25T09:46:28.653Z,2.27
2019-05-25T09:48:57.938Z,3.07
2019-05-25T09:51:27.029Z,3.17
2019-05-25T09:53:56.098Z,3.43
2019-05-25T09:56:25.183Z,2.63
2019-05-25T09:58:54.285Z,2.77
2019-05-25T10:01:23.366Z,4.47
2019-05-25T10:03:52.448Z,3.50
2019-05-25T10:06:21.485Z,2.57
2019-05-25T10:08:50.557Z,2.90
2019-05-25T10:11:19.609Z,2.80
2019-05-25T10:13:48.695Z,6.00
2019-05-25T10:16:17.822Z,2.83
2019-05-25T10:18:46.890Z,4.20
2019-05-25T10:21:15.961Z,71.93
2019-05-25T10:23:45.048Z,525.17
2019-05-25T10:26:14.146Z,372.77
2019-05-25T10:28:43.214Z,294.13
2019-05-25T10:31:12.302Z,249.97
2019-05-25T10:33:41.345Z,204.87
2019-05-25T10:36:10.417Z,187.93
2019-05-25T10:38:39.504Z,171.10
2019-05-25T10:41:08.572Z,136.97
2019-05-25T10:43:37.641Z,131.87
2019-05-25T10:46:06.737Z,115.13
2019-05-25T10:48:35.813Z,105.00
2019-05-25T10:51:05.009Z,93.93
2019-05-25T10:53:34.090Z,98.00
2019-05-25T10:56:03.189Z,84.50
2019-05-25T10:58:32.274Z,90.23
2019-05-25T11:01:01.363Z,85.90
2019-05-25T11:03:30.425Z,99.77
2019-05-25T11:05:59.542Z,78.73
2019-05-25T11:08:28.596Z,94.53
2019-05-25T11:10:57.682Z,69.50
2019-05-25T11:13:26.745Z,63.43
2019-05-25T11:15:55.806Z,74.10
2019-05-25T11:18:24.881Z,57.33
2019-05-25T11:20:54.020Z,63.40
2019-05-25T11:23:23.089Z,64.00
2019-05-25T11:25:52.123Z,53.77
2019-05-25T11:28:21.201Z,56.40
2019-05-25T11:30:50.257Z,52.77
2019-05-25T11:33:19.329Z,49.33
2019-05-25T11:35:48.389Z,53.73
2019-05-25T11:38:17.458Z,47.47
2019-05-25T11:40:46.505Z,45.57
2019-05-25T11:43:15.586Z,45.47
2019-05-25T11:45:45.455Z,41.67
2019-05-25T11:48:14.729Z,38.03
2019-05-25T11:50:43.880Z,43.27
2019-05-25T11:53:12.946Z,39.90
2019-05-25T11:55:42.114Z,45.47
2019-05-25T11:58:11.213Z,37.20
2019-05-25T12:00:40.341Z,41.17
2019-05-25T12:03:09.438Z,42.77
2019-05-25T12:05:38.435Z,35.20
2019-05-25T12:08:07.556Z,38.60
2019-05-25T12:10:36.699Z,29.73
2019-05-25T12:13:05.780Z,30.67
2019-05-25T12:15:34.875Z,36.23
2019-05-25T12:18:04.008Z,30.33
2019-05-25T12:20:33.096Z,31.53
2019-05-25T12:23:02.677Z,40.03
2019-05-25T12:25:32.233Z,28.40
2019-05-25T12:28:01.382Z,29.50
2019-05-25T12:30:40.457Z,24.40
2019-05-25T12:33:01.250Z,20.90
2019-05-25T12:35:30.302Z,24.20
2019-05-25T12:37:59.405Z,27.60
2019-05-25T12:40:28.559Z,20.47
2019-05-25T12:42:57.632Z,26.17
2019-05-25T12:45:26.695Z,24.23
2019-05-25T12:47:55.759Z,18.50
2019-05-25T12:50:25.437Z,23.20
2019-05-25T12:52:54.497Z,20.27
2019-05-25T12:55:23.575Z,21.17
2019-05-25T12:57:52.638Z,26.27
2019-05-25T13:00:22.014Z,25.50
2019-05-25T13:02:51.090Z,18.63
2019-05-25T13:05:33.073Z,17.10
2019-05-25T13:07:50.986Z,21.10
2019-05-25T13:10:20.180Z,15.07
2019-05-25T13:12:49.253Z,20.70
2019-05-25T13:15:18.317Z,18.67
2019-05-25T13:17:47.395Z,16.00
2019-05-25T13:20:16.587Z,13.30
2019-05-25T13:22:45.653Z,14.40
2019-05-25T13:25:14.701Z,15.47
2019-05-25T13:27:43.769Z,14.53
2019-05-25T13:30:13.140Z,9.10
2019-05-25T13:32:42.242Z,16.67
2019-05-25T13:35:11.608Z,12.50
2019-05-25T13:37:40.697Z,10.80
2019-05-25T13:40:09.857Z,19.33
2019-05-25T13:42:38.947Z,13.70
2019-05-25T13:45:09.199Z,11.97
2019-05-25T13:47:38.275Z,16.03
2019-05-25T13:50:08.313Z,11.07
2019-05-25T13:52:37.375Z,18.87
2019-05-25T13:55:06.952Z,16.53
2019-05-25T13:57:36.021Z,10.03
2019-05-25T14:00:05.939Z,12.03
2019-05-25T14:02:35.057Z,9.83
2019-05-25T14:05:04.345Z,13.23
2019-05-25T14:07:33.416Z,12.60
2019-05-25T14:10:02.477Z,9.90
2019-05-25T14:12:31.541Z,17.13
2019-05-25T14:15:00.600Z,13.37
2019-05-25T14:17:29.670Z,13.20
2019-05-25T14:19:58.743Z,13.03
2019-05-25T14:22:27.797Z,11.80
2019-05-25T14:24:56.865Z,12.53
2019-05-25T14:27:25.905Z,12.73
2019-05-25T14:29:54.994Z,21.47
2019-05-25T14:32:24.048Z,11.87
2019-05-25T14:34:53.140Z,11.03
2019-05-25T14:37:22.213Z,10.87
2019-05-25T14:39:51.289Z,13.73
2019-05-25T14:42:20.336Z,13.83
2019-05-25T14:44:49.413Z,16.70
2019-05-25T14:47:18.747Z,9.57
2019-05-25T14:49:47.821Z,18.20
2019-05-25T14:52:16.946Z,24.53
2019-05-25T14:54:46.021Z,32.30
2019-05-25T14:57:15.101Z,24.87
2019-05-25T14:59:44.149Z,24.30
2019-05-25T15:02:13.226Z,20.13
2019-05-25T15:04:42.298Z,24.47
2019-05-25T15:07:11.422Z,16.77
2019-05-25T15:09:40.399Z,20.80
2019-05-25T15:12:09.467Z,24.60
2019-05-25T15:14:38.510Z,21.17
2019-05-25T15:17:07.585Z,23.30
2019-05-25T15:19:36.661Z,19.43
2019-05-25T15:22:05.961Z,18.90
2019-05-25T15:24:35.152Z,18.13
2019-05-25T15:27:04.321Z,17.93
2019-05-25T15:29:33.398Z,13.90
2019-05-25T15:32:18.458Z,22.00
2019-05-25T15:34:33.261Z,14.83
2019-05-25T15:37:02.418Z,19.67
2019-05-25T15:39:31.461Z,18.20
2019-05-25T15:42:00.529Z,13.30
2019-05-25T15:44:29.597Z,14.87
2019-05-25T15:46:58.676Z,18.63
2019-05-25T15:49:33.490Z,14.50
2019-05-25T15:51:58.530Z,16.50
2019-05-25T15:54:27.580Z,20.83
2019-05-25T15:56:56.668Z,10.93
2019-05-25T15:59:25.731Z,15.30
2019-05-25T16:01:54.829Z,13.80
2019-05-25T16:04:23.992Z,13.53
2019-05-25T16:06:53.179Z,13.57
2019-05-25T16:09:22.238Z,13.90
2019-05-25T16:11:51.311Z,15.37
2019-05-25T16:14:20.390Z,8.77
2019-05-25T16:16:49.468Z,10.40
2019-05-25T16:19:18.521Z,14.67
2019-05-25T16:21:47.619Z,15.73
2019-05-25T16:24:16.684Z,15.67
2019-05-25T16:26:46.735Z,13.47
2019-05-25T16:29:15.989Z,11.33
2019-05-25T16:31:45.069Z,15.10
2019-05-25T16:34:14.125Z,9.87
2019-05-25T16:36:43.193Z,15.67
2019-05-25T16:39:12.253Z,11.37
2019-05-25T16:41:41.327Z,9.40
2019-05-25T16:44:10.415Z,12.10
2019-05-25T16:46:39.490Z,10.97
2019-05-25T16:49:08.549Z,10.30
2019-05-25T16:51:37.674Z,12.80
2019-05-25T16:54:06.885Z,13.53
2019-05-25T16:56:35.938Z,10.57
2019-05-25T16:59:05.102Z,10.13
2019-05-25T17:01:47.701Z,15.67
2019-05-25T17:04:05.004Z,12.77
2019-05-25T17:06:34.068Z,11.93
2019-05-25T17:09:03.740Z,10.60
2019-05-25T17:11:32.817Z,13.30
2019-05-25T17:14:01.914Z,11.27
2019-05-25T17:16:30.989Z,9.30
2019-05-25T17:19:00.121Z,9.87
2019-05-25T17:21:29.182Z,8.60
2019-05-25T17:23:58.286Z,11.03
2019-05-25T17:26:27.419Z,13.23
2019-05-25T17:28:56.496Z,8.53
2019-05-25T17:31:25.533Z,9.70
2019-05-25T17:33:54.997Z,11.47
2019-05-25T17:36:24.051Z,13.77
2019-05-25T17:38:53.147Z,10.77
2019-05-25T17:41:22.194Z,10.10
2019-05-25T17:43:51.251Z,12.43
2019-05-25T17:46:20.300Z,12.87
2019-05-25T17:48:49.377Z,12.30
2019-05-25T17:51:18.437Z,9.77
2019-05-25T17:53:47.514Z,11.97
2019-05-25T17:56:16.578Z,11.80
2019-05-25T17:58:45.760Z,10.23
2019-05-25T18:01:14.816Z,8.47
2019-05-25T18:04:04.342Z,10.13
2019-05-25T18:06:16.358Z,11.10
2019-05-25T18:08:46.153Z,9.83
2019-05-25T18:11:16.195Z,13.37
2019-05-25T18:13:46.178Z,8.90
2019-05-25T18:16:16.410Z,9.40
2019-05-25T18:18:46.670Z,9.20
2019-05-25T18:21:17.288Z,11.80
2019-05-25T18:23:47.476Z,8.00
2019-05-25T18:26:17.541Z,10.60
2019-05-25T18:28:47.781Z,9.90
2019-05-25T18:31:18.607Z,10.00
2019-05-25T18:33:48.815Z,9.73
2019-05-25T18:36:19.066Z,9.23
2019-05-25T18:38:49.261Z,11.13
2019-05-25T18:41:19.498Z,10.43
2019-05-25T18:43:49.469Z,9.00
2019-05-25T18:46:19.288Z,11.90
2019-05-25T18:48:49.347Z,12.10
2019-05-25T18:51:18.450Z,8.67
2019-05-25T18:53:47.550Z,8.20
2019-05-25T18:56:16.628Z,8.67
2019-05-25T18:58:45.718Z,8.40
2019-05-25T19:01:14.778Z,9.10
2019-05-25T19:03:43.854Z,8.60
2019-05-25T19:06:12.954Z,8.00
2019-05-25T19:08:42.032Z,8.87
2019-05-25T19:11:11.167Z,12.30
2019-05-25T19:13:40.345Z,8.53
2019-05-25T19:16:09.406Z,11.03
2019-05-25T19:18:38.530Z,11.17
2019-05-25T19:21:07.621Z,12.20
2019-05-25T19:23:36.754Z,10.83
2019-05-25T19:26:05.831Z,11.40
2019-05-25T19:28:34.900Z,9.73
2019-05-25T19:31:04.001Z,9.37
2019-05-25T19:33:33.061Z,14.60
2019-05-25T19:36:02.140Z,8.30
2019-05-25T19:38:31.230Z,6.53
2019-05-25T19:41:00.300Z,10.80
2019-05-25T19:43:29.406Z,12.40
2019-05-25T19:45:58.493Z,14.03
2019-05-25T19:48:27.701Z,9.57
2019-05-25T19:50:56.778Z,9.13
2019-05-25T19:53:25.853Z,7.43
2019-05-25T19:55:54.921Z,14.03
2019-05-25T19:58:24.107Z,7.10
2019-05-25T20:00:53.182Z,11.33
2019-05-25T20:03:22.253Z,9.23
2019-05-25T20:05:51.343Z,13.30
2019-05-25T20:08:20.436Z,12.93
2019-05-25T20:10:49.609Z,12.00
2019-05-25T20:13:18.895Z,18.27
2019-05-25T20:15:47.966Z,8.60
2019-05-25T20:18:17.039Z,11.73
2019-05-25T20:20:46.094Z,9.60
2019-05-25T20:23:15.145Z,7.67
2019-05-25T20:25:44.200Z,8.77
2019-05-25T20:28:13.240Z,6.93
2019-05-25T20:30:42.321Z,4.73
2019-05-25T20:33:11.380Z,6.50
2019-05-25T20:35:40.464Z,6.53
2019-05-25T20:38:09.508Z,8.63
2019-05-25T20:40:38.562Z,7.27
2019-05-25T20:43:07.614Z,5.33
2019-05-25T20:45:36.687Z,7.43
2019-05-25T20:48:05.775Z,9.23
2019-05-25T20:50:34.849Z,7.50
2019-05-25T20:53:03.926Z,8.03
2019-05-25T20:55:33.708Z,7.40
2019-05-25T20:58:02.854Z,8.60
2019-05-25T21:00:32.604Z,9.30
2019-05-25T21:03:06.588Z,6.40
2019-05-25T21:05:49.153Z,6.30
2019-05-25T21:08:04.311Z,7.10
2019-05-25T21:10:33.406Z,8.47
2019-05-25T21:13:02.479Z,8.20
2019-05-25T21:15:31.566Z,7.93
2019-05-25T21:18:00.733Z,6.30
2019-05-25T21:20:29.787Z,5.40
2019-05-25T21:22:58.934Z,4.93
2019-05-25T21:25:28.528Z,7.37
2019-05-25T21:27:58.286Z,7.93
2019-05-25T21:30:27.428Z,6.87
2019-05-25T21:32:56.774Z,6.10
2019-05-25T21:35:25.804Z,4.60
2019-05-25T21:37:54.882Z,6.80
2019-05-25T21:40:23.977Z,5.27
2019-05-25T21:42:53.049Z,7.43
2019-05-25T21:45:22.233Z,7.47
2019-05-25T21:47:55.632Z,7.53
2019-05-25T21:50:22.262Z,4.80
2019-05-25T21:52:51.333Z,4.50
2019-05-25T21:55:20.438Z,5.50
2019-05-25T21:57:49.510Z,9.20
2019-05-25T22:00:23.310Z,8.23
2019-05-25T22:02:52.458Z,6.53
2019-05-25T22:05:21.739Z,7.27
2019-05-25T22:07:50.813Z,7.67
2019-05-25T22:10:20.004Z,5.23
2019-05-25T22:12:49.408Z,5.20
2019-05-25T22:15:18.484Z,5.50
2019-05-25T22:17:47.564Z,5.67
2019-05-25T22:20:18.538Z,5.77
2019-05-25T22:22:48.441Z,5.87
2019-05-25T22:25:18.634Z,7.00
2019-05-25T22:27:48.536Z,10.30
2019-05-25T22:30:18.969Z,5.10
2019-05-25T22:32:48.963Z,4.23
2019-05-25T22:35:19.137Z,9.23
2019-05-25T22:37:49.126Z,5.27
2019-05-25T22:40:19.180Z,6.70
2019-05-25T22:42:48.911Z,5.33
2019-05-25T22:45:18.554Z,5.60
2019-05-25T22:47:47.667Z,6.03
2019-05-25T22:50:16.742Z,6.70
2019-05-25T22:52:45.822Z,5.27
2019-05-25T22:55:15.677Z,4.90
2019-05-25T22:57:44.636Z,5.73
2019-05-25T23:00:13.878Z,4.90
2019-05-25T23:02:42.889Z,10.20
2019-05-25T23:05:11.920Z,4.10
2019-05-25T23:07:40.967Z,5.07
2019-05-25T23:10:10.615Z,3.97
2019-05-25T23:12:39.718Z,5.20
2019-05-25T23:15:10.336Z,9.77
2019-05-25T23:17:39.397Z,5.57
2019-05-25T23:20:10.034Z,4.23
2019-05-25T23:22:39.126Z,7.90
2019-05-25T23:25:08.398Z,7.23
2019-05-25T23:27:37.477Z,6.00
2019-05-25T23:30:08.707Z,6.30
2019-05-25T23:32:37.775Z,7.93
2019-05-25T23:35:07.029Z,6.13
2019-05-25T23:37:36.094Z,5.60
2019-05-25T23:40:05.982Z,4.83
2019-05-25T23:42:35.033Z,9.03
2019-05-25T23:45:04.434Z,6.10
2019-05-25T23:47:33.515Z,10.57
2019-05-25T23:50:02.589Z,5.77
2019-05-25T23:52:31.670Z,4.40
2019-05-25T23:55:04.584Z,4.37
2019-05-25T23:57:31.517Z,6.07
